This is the latest recevied weather packets stored in our database for station/object F4WDE-10. If no packets are shown the sender has not sent any weather packets the latest 10 day(s).
| Time | Temp. | Humidity | Pressure | Rain* | Wind** | Luminosity | Snow |
|---|---|---|---|---|---|---|---|
| 1778177723 | 17.78° C | 66% | 959 hPa | - | - | - | - |
| 1778176822 | 18.33° C | 66% | 959 hPa | - | - | - | - |
| 1778175921 | 18.89° C | 62% | 958 hPa | - | - | - | - |
| 1778175020 | 19.44° C | 60% | 958 hPa | - | - | - | - |
| 1778174119 | 20° C | 55% | 958 hPa | - | - | - | - |
| 1778173218 | 21.11° C | 48% | 958 hPa | - | - | - | - |
| 1778172316 | 31.67° C | 26% | 958 hPa | - | - | - | - |
| 1778171415 | 32.78° C | 25% | 958 hPa | - | - | - | - |
| 1778170514 | 34.44° C | 24% | 958 hPa | - | - | - | - |
| 1778169613 | 35.56° C | 25% | 958 hPa | - | - | - | - |
| 1778168712 | 37.78° C | 24% | 958 hPa | - | - | - | - |
| 1778167811 | 31.67° C | 32% | 958 hPa | - | - | - | - |
| 1778166910 | 24.44° C | 46% | 958 hPa | - | - | - | - |
| 1778166009 | 25° C | 43% | 958 hPa | - | - | - | - |
| 1778165108 | 24.44° C | 45% | 958 hPa | - | - | - | - |
| 1778164207 | 25° C | 45% | 959 hPa | - | - | - | - |
| 1778163306 | 23.33° C | 47% | 959 hPa | - | - | - | - |
| 1778162404 | 22.78° C | 47% | 959 hPa | - | - | - | - |
| 1778161503 | 23.33° C | 47% | 959 hPa | - | - | - | - |
| 1778160602 | 23.89° C | 44% | 959 hPa | - | - | - | - |
| 1778159702 | 23.89° C | 44% | 959 hPa | - | - | - | - |
| 1778159701 | 23.89° C | 44% | 959 hPa | - | - | - | - |
| 1778158800 | 23.33° C | 44% | 959 hPa | - | - | - | - |
| 1778157899 | 23.33° C | 44% | 959 hPa | - | - | - | - |
| 1778156998 | 22.78° C | 44% | 959 hPa | - | - | - | - |
* Rain since midnight (hover to see other rain measurements)
** Current wind speed in m/s (hover to see current wind gust speed)